Hammet, Louisiana
Current Conditions -  °F | °C
As of 4:35 PM on Friday 31 Oct 2014 (Local Time) from KHEZ Reporting Station
Few Clouds Few Clouds  
Wind Chill: 66°   Ceiling: Unl
Heat Index: 66°   Visibility: 10mi
Dew Point: 46°   Wind: 13mph
Humidity: 49%   Direction: 330°NNW
Pressure: 30.12"   Gusts: 20mph
Location:  31.5712°N, 91.5148°W
Report Text: KHEZ 312135Z AUTO 33011G17KT 10SM FEW049 19/08 A3012 RMK AO1
Loading
Personal Weather Stations






























Interactive Weather Map
Tropical Storm Tracking
New forecast layout! Learn more

10-Day Weather Forecast

Advertisements
Track Severe Weather on mobile